sensor_id;sensor_type;location;lat;lon;timestamp;P1;durP1;ratioP1;P2;durP2;ratioP2
305;SDS011;137;48.578;9.180;2023-12-22T00:00:10;1.87;;;0.97;;
305;SDS011;137;48.578;9.180;2023-12-22T00:02:37;2.20;;;0.80;;
305;SDS011;137;48.578;9.180;2023-12-22T00:05:06;1.83;;;0.90;;
305;SDS011;137;48.578;9.180;2023-12-22T00:07:33;1.20;;;0.80;;
305;SDS011;137;48.578;9.180;2023-12-22T00:10:00;1.77;;;0.70;;
305;SDS011;137;48.578;9.180;2023-12-22T00:12:26;1.97;;;0.90;;
305;SDS011;137;48.578;9.180;2023-12-22T00:14:53;3.00;;;1.33;;
305;SDS011;137;48.578;9.180;2023-12-22T00:17:20;1.50;;;0.80;;
305;SDS011;137;48.578;9.180;2023-12-22T00:19:47;1.47;;;1.00;;
305;SDS011;137;48.578;9.180;2023-12-22T00:22:15;2.73;;;0.97;;
305;SDS011;137;48.578;9.180;2023-12-22T00:24:41;4.47;;;1.20;;
305;SDS011;137;48.578;9.180;2023-12-22T00:27:08;2.80;;;1.23;;
305;SDS011;137;48.578;9.180;2023-12-22T00:29:35;2.07;;;1.30;;
305;SDS011;137;48.578;9.180;2023-12-22T00:32:02;2.27;;;1.00;;
305;SDS011;137;48.578;9.180;2023-12-22T00:34:29;3.83;;;1.50;;
305;SDS011;137;48.578;9.180;2023-12-22T00:36:56;1.83;;;1.00;;
305;SDS011;137;48.578;9.180;2023-12-22T00:39:24;4.20;;;1.10;;
305;SDS011;137;48.578;9.180;2023-12-22T00:41:51;1.77;;;1.10;;
305;SDS011;137;48.578;9.180;2023-12-22T00:44:18;2.30;;;1.43;;
305;SDS011;137;48.578;9.180;2023-12-22T00:46:45;1.50;;;1.00;;
305;SDS011;137;48.578;9.180;2023-12-22T00:49:11;2.80;;;1.00;;
305;SDS011;137;48.578;9.180;2023-12-22T00:51:38;7.57;;;1.73;;
305;SDS011;137;48.578;9.180;2023-12-22T00:54:05;2.30;;;1.10;;
305;SDS011;137;48.578;9.180;2023-12-22T00:56:33;1.80;;;1.10;;
305;SDS011;137;48.578;9.180;2023-12-22T00:59:00;4.10;;;1.57;;
305;SDS011;137;48.578;9.180;2023-12-22T01:01:26;5.43;;;1.33;;
305;SDS011;137;48.578;9.180;2023-12-22T01:03:53;2.40;;;0.90;;
305;SDS011;137;48.578;9.180;2023-12-22T01:06:20;1.90;;;0.80;;
305;SDS011;137;48.578;9.180;2023-12-22T01:08:46;2.07;;;0.93;;
305;SDS011;137;48.578;9.180;2023-12-22T01:11:15;2.80;;;1.13;;
305;SDS011;137;48.578;9.180;2023-12-22T01:13:43;2.90;;;1.30;;
305;SDS011;137;48.578;9.180;2023-12-22T01:16:10;2.17;;;1.00;;
305;SDS011;137;48.578;9.180;2023-12-22T01:18:36;5.13;;;1.50;;
305;SDS011;137;48.578;9.180;2023-12-22T01:21:07;3.30;;;1.20;;
305;SDS011;137;48.578;9.180;2023-12-22T01:23:34;3.40;;;1.10;;
305;SDS011;137;48.578;9.180;2023-12-22T01:26:00;4.37;;;1.57;;
305;SDS011;137;48.578;9.180;2023-12-22T01:28:27;3.53;;;1.77;;
305;SDS011;137;48.578;9.180;2023-12-22T01:30:55;2.60;;;1.43;;
305;SDS011;137;48.578;9.180;2023-12-22T01:33:22;2.10;;;1.10;;
305;SDS011;137;48.578;9.180;2023-12-22T01:35:49;2.50;;;0.90;;
305;SDS011;137;48.578;9.180;2023-12-22T01:38:16;1.57;;;1.13;;
305;SDS011;137;48.578;9.180;2023-12-22T01:40:42;2.50;;;1.03;;
305;SDS011;137;48.578;9.180;2023-12-22T01:43:09;1.20;;;0.70;;
305;SDS011;137;48.578;9.180;2023-12-22T01:45:36;1.43;;;0.70;;
305;SDS011;137;48.578;9.180;2023-12-22T01:48:04;1.10;;;0.60;;
305;SDS011;137;48.578;9.180;2023-12-22T01:50:31;1.80;;;0.60;;
305;SDS011;137;48.578;9.180;2023-12-22T01:52:58;1.20;;;0.60;;
305;SDS011;137;48.578;9.180;2023-12-22T01:55:25;1.73;;;0.77;;
305;SDS011;137;48.578;9.180;2023-12-22T01:57:52;1.00;;;0.60;;
305;SDS011;137;48.578;9.180;2023-12-22T02:00:19;1.10;;;0.70;;
305;SDS011;137;48.578;9.180;2023-12-22T02:02:46;1.10;;;0.70;;
305;SDS011;137;48.578;9.180;2023-12-22T02:05:15;3.47;;;0.60;;
305;SDS011;137;48.578;9.180;2023-12-22T02:07:41;1.43;;;0.50;;
305;SDS011;137;48.578;9.180;2023-12-22T02:10:09;2.13;;;0.70;;
305;SDS011;137;48.578;9.180;2023-12-22T02:12:36;1.73;;;0.60;;
305;SDS011;137;48.578;9.180;2023-12-22T02:15:03;1.30;;;0.60;;
305;SDS011;137;48.578;9.180;2023-12-22T02:17:33;1.00;;;0.60;;
305;SDS011;137;48.578;9.180;2023-12-22T02:20:06;1.10;;;0.70;;
305;SDS011;137;48.578;9.180;2023-12-22T02:22:35;1.63;;;0.70;;
305;SDS011;137;48.578;9.180;2023-12-22T02:25:02;1.33;;;0.77;;
305;SDS011;137;48.578;9.180;2023-12-22T02:27:33;1.33;;;0.73;;
305;SDS011;137;48.578;9.180;2023-12-22T02:30:06;2.20;;;0.80;;
305;SDS011;137;48.578;9.180;2023-12-22T02:32:37;2.67;;;1.13;;
305;SDS011;137;48.578;9.180;2023-12-22T02:35:07;2.70;;;1.10;;
305;SDS011;137;48.578;9.180;2023-12-22T02:37:37;1.23;;;0.90;;
305;SDS011;137;48.578;9.180;2023-12-22T02:40:06;3.50;;;1.20;;
305;SDS011;137;48.578;9.180;2023-12-22T02:42:33;3.20;;;1.00;;
305;SDS011;137;48.578;9.180;2023-12-22T02:45:02;1.53;;;0.93;;
305;SDS011;137;48.578;9.180;2023-12-22T02:47:29;1.20;;;0.90;;
305;SDS011;137;48.578;9.180;2023-12-22T02:49:57;2.03;;;0.80;;
305;SDS011;137;48.578;9.180;2023-12-22T02:52:24;1.43;;;0.80;;
305;SDS011;137;48.578;9.180;2023-12-22T02:54:52;2.93;;;1.00;;
305;SDS011;137;48.578;9.180;2023-12-22T02:57:19;3.10;;;1.00;;
305;SDS011;137;48.578;9.180;2023-12-22T02:59:45;2.50;;;1.37;;
305;SDS011;137;48.578;9.180;2023-12-22T03:02:12;3.17;;;1.40;;
305;SDS011;137;48.578;9.180;2023-12-22T03:04:39;4.43;;;0.87;;
305;SDS011;137;48.578;9.180;2023-12-22T03:07:06;2.27;;;1.20;;
305;SDS011;137;48.578;9.180;2023-12-22T03:09:32;4.03;;;1.63;;
305;SDS011;137;48.578;9.180;2023-12-22T03:12:01;8.30;;;1.57;;
305;SDS011;137;48.578;9.180;2023-12-22T03:14:28;3.73;;;1.10;;
305;SDS011;137;48.578;9.180;2023-12-22T03:16:55;3.10;;;0.90;;
305;SDS011;137;48.578;9.180;2023-12-22T03:19:22;1.30;;;0.80;;
305;SDS011;137;48.578;9.180;2023-12-22T03:21:48;1.60;;;0.80;;
305;SDS011;137;48.578;9.180;2023-12-22T03:24:15;2.73;;;0.90;;
305;SDS011;137;48.578;9.180;2023-12-22T03:26:43;1.90;;;1.07;;
305;SDS011;137;48.578;9.180;2023-12-22T03:29:11;1.90;;;0.90;;
305;SDS011;137;48.578;9.180;2023-12-22T03:31:38;1.70;;;0.87;;
305;SDS011;137;48.578;9.180;2023-12-22T03:34:04;2.80;;;0.80;;
305;SDS011;137;48.578;9.180;2023-12-22T03:36:30;2.00;;;1.00;;
305;SDS011;137;48.578;9.180;2023-12-22T03:41:26;1.50;;;0.80;;
305;SDS011;137;48.578;9.180;2023-12-22T03:43:54;1.73;;;0.80;;
305;SDS011;137;48.578;9.180;2023-12-22T03:46:22;2.50;;;0.87;;
305;SDS011;137;48.578;9.180;2023-12-22T03:48:49;2.03;;;0.80;;
305;SDS011;137;48.578;9.180;2023-12-22T03:51:16;2.00;;;0.93;;
305;SDS011;137;48.578;9.180;2023-12-22T03:53:43;1.87;;;0.90;;
305;SDS011;137;48.578;9.180;2023-12-22T03:56:10;2.50;;;1.00;;
305;SDS011;137;48.578;9.180;2023-12-22T03:58:37;2.87;;;0.80;;
305;SDS011;137;48.578;9.180;2023-12-22T04:01:03;2.50;;;1.27;;
305;SDS011;137;48.578;9.180;2023-12-22T04:03:33;4.40;;;0.73;;
305;SDS011;137;48.578;9.180;2023-12-22T04:06:01;1.47;;;1.13;;
305;SDS011;137;48.578;9.180;2023-12-22T04:08:28;2.50;;;1.20;;
305;SDS011;137;48.578;9.180;2023-12-22T04:10:55;4.83;;;1.40;;
305;SDS011;137;48.578;9.180;2023-12-22T04:13:21;3.43;;;1.00;;
305;SDS011;137;48.578;9.180;2023-12-22T04:15:48;1.87;;;0.70;;
305;SDS011;137;48.578;9.180;2023-12-22T04:18:15;2.27;;;1.13;;
305;SDS011;137;48.578;9.180;2023-12-22T04:20:43;4.17;;;1.13;;
305;SDS011;137;48.578;9.180;2023-12-22T04:23:09;2.37;;;1.10;;
305;SDS011;137;48.578;9.180;2023-12-22T04:25:36;2.60;;;1.63;;
305;SDS011;137;48.578;9.180;2023-12-22T04:28:03;3.10;;;1.53;;
305;SDS011;137;48.578;9.180;2023-12-22T04:30:30;3.97;;;1.40;;
305;SDS011;137;48.578;9.180;2023-12-22T04:32:57;1.40;;;1.20;;
305;SDS011;137;48.578;9.180;2023-12-22T04:35:23;3.00;;;1.20;;
305;SDS011;137;48.578;9.180;2023-12-22T04:37:51;3.43;;;1.10;;
305;SDS011;137;48.578;9.180;2023-12-22T04:40:18;2.23;;;1.27;;
305;SDS011;137;48.578;9.180;2023-12-22T04:42:45;6.70;;;1.20;;
305;SDS011;137;48.578;9.180;2023-12-22T04:45:11;5.40;;;1.27;;
305;SDS011;137;48.578;9.180;2023-12-22T04:47:38;7.03;;;1.53;;
305;SDS011;137;48.578;9.180;2023-12-22T04:50:05;3.47;;;1.30;;
305;SDS011;137;48.578;9.180;2023-12-22T04:52:32;5.47;;;1.37;;
305;SDS011;137;48.578;9.180;2023-12-22T04:55:00;4.27;;;1.50;;
305;SDS011;137;48.578;9.180;2023-12-22T04:57:27;7.93;;;1.50;;
305;SDS011;137;48.578;9.180;2023-12-22T04:59:53;2.90;;;1.30;;
305;SDS011;137;48.578;9.180;2023-12-22T05:02:20;6.00;;;1.13;;
305;SDS011;137;48.578;9.180;2023-12-22T05:04:47;2.50;;;1.40;;
305;SDS011;137;48.578;9.180;2023-12-22T05:07:14;3.73;;;1.60;;
305;SDS011;137;48.578;9.180;2023-12-22T05:09:41;3.63;;;1.10;;
305;SDS011;137;48.578;9.180;2023-12-22T05:12:09;3.13;;;1.30;;
305;SDS011;137;48.578;9.180;2023-12-22T05:14:36;4.47;;;1.50;;
305;SDS011;137;48.578;9.180;2023-12-22T05:17:03;2.27;;;1.00;;
305;SDS011;137;48.578;9.180;2023-12-22T05:19:30;4.53;;;2.30;;
305;SDS011;137;48.578;9.180;2023-12-22T05:21:57;3.53;;;1.23;;
305;SDS011;137;48.578;9.180;2023-12-22T05:24:27;2.30;;;1.47;;
305;SDS011;137;48.578;9.180;2023-12-22T05:26:55;3.70;;;1.37;;
305;SDS011;137;48.578;9.180;2023-12-22T05:29:23;2.87;;;1.77;;
305;SDS011;137;48.578;9.180;2023-12-22T05:31:50;3.90;;;1.37;;
305;SDS011;137;48.578;9.180;2023-12-22T05:34:18;5.23;;;2.33;;
305;SDS011;137;48.578;9.180;2023-12-22T05:36:47;4.77;;;2.80;;
305;SDS011;137;48.578;9.180;2023-12-22T05:39:14;4.87;;;1.60;;
305;SDS011;137;48.578;9.180;2023-12-22T05:41:41;4.50;;;1.47;;
305;SDS011;137;48.578;9.180;2023-12-22T05:44:08;4.90;;;1.33;;
305;SDS011;137;48.578;9.180;2023-12-22T05:46:39;5.07;;;1.50;;
305;SDS011;137;48.578;9.180;2023-12-22T05:49:05;5.10;;;1.30;;
305;SDS011;137;48.578;9.180;2023-12-22T05:51:36;3.50;;;1.60;;
305;SDS011;137;48.578;9.180;2023-12-22T05:54:04;6.83;;;1.70;;
305;SDS011;137;48.578;9.180;2023-12-22T05:56:31;5.47;;;1.93;;
305;SDS011;137;48.578;9.180;2023-12-22T05:58:58;7.23;;;1.70;;
305;SDS011;137;48.578;9.180;2023-12-22T06:01:25;2.50;;;1.23;;
305;SDS011;137;48.578;9.180;2023-12-22T06:03:54;2.90;;;1.47;;
305;SDS011;137;48.578;9.180;2023-12-22T06:06:21;6.63;;;1.67;;
305;SDS011;137;48.578;9.180;2023-12-22T06:08:48;4.80;;;1.50;;
305;SDS011;137;48.578;9.180;2023-12-22T06:11:15;11.87;;;2.30;;
305;SDS011;137;48.578;9.180;2023-12-22T06:13:41;2.33;;;1.40;;
305;SDS011;137;48.578;9.180;2023-12-22T06:16:10;5.97;;;2.17;;
305;SDS011;137;48.578;9.180;2023-12-22T06:18:39;2.70;;;1.70;;
305;SDS011;137;48.578;9.180;2023-12-22T06:21:08;4.33;;;1.40;;
305;SDS011;137;48.578;9.180;2023-12-22T06:23:35;6.90;;;1.40;;
305;SDS011;137;48.578;9.180;2023-12-22T06:26:07;5.87;;;1.63;;
305;SDS011;137;48.578;9.180;2023-12-22T06:28:34;4.63;;;2.20;;
305;SDS011;137;48.578;9.180;2023-12-22T06:31:03;2.90;;;1.47;;
305;SDS011;137;48.578;9.180;2023-12-22T06:33:30;2.87;;;1.20;;
305;SDS011;137;48.578;9.180;2023-12-22T06:35:55;6.33;;;1.50;;
305;SDS011;137;48.578;9.180;2023-12-22T06:38:23;9.60;;;1.60;;
305;SDS011;137;48.578;9.180;2023-12-22T06:40:50;3.10;;;1.43;;
305;SDS011;137;48.578;9.180;2023-12-22T06:43:17;4.53;;;1.23;;
305;SDS011;137;48.578;9.180;2023-12-22T06:45:46;7.83;;;1.83;;
305;SDS011;137;48.578;9.180;2023-12-22T06:48:13;5.50;;;2.23;;
305;SDS011;137;48.578;9.180;2023-12-22T06:50:40;5.40;;;1.57;;
305;SDS011;137;48.578;9.180;2023-12-22T06:53:09;2.60;;;1.43;;
305;SDS011;137;48.578;9.180;2023-12-22T06:55:37;8.47;;;2.20;;
305;SDS011;137;48.578;9.180;2023-12-22T06:58:04;4.00;;;1.97;;
305;SDS011;137;48.578;9.180;2023-12-22T07:00:31;1.83;;;1.43;;
305;SDS011;137;48.578;9.180;2023-12-22T07:02:57;4.00;;;1.20;;
305;SDS011;137;48.578;9.180;2023-12-22T07:05:31;6.33;;;2.13;;
305;SDS011;137;48.578;9.180;2023-12-22T07:08:01;7.97;;;2.27;;
305;SDS011;137;48.578;9.180;2023-12-22T07:10:31;8.00;;;1.90;;
305;SDS011;137;48.578;9.180;2023-12-22T07:13:06;6.27;;;2.30;;
305;SDS011;137;48.578;9.180;2023-12-22T07:15:32;3.90;;;2.10;;
305;SDS011;137;48.578;9.180;2023-12-22T07:17:59;3.73;;;1.50;;
305;SDS011;137;48.578;9.180;2023-12-22T07:20:26;3.90;;;1.83;;
305;SDS011;137;48.578;9.180;2023-12-22T07:22:53;3.70;;;1.50;;
305;SDS011;137;48.578;9.180;2023-12-22T07:25:21;5.33;;;3.10;;
305;SDS011;137;48.578;9.180;2023-12-22T07:27:48;1.90;;;1.33;;
305;SDS011;137;48.578;9.180;2023-12-22T07:30:16;5.27;;;1.53;;
305;SDS011;137;48.578;9.180;2023-12-22T07:32:43;5.93;;;1.90;;
305;SDS011;137;48.578;9.180;2023-12-22T07:35:12;8.07;;;2.07;;
305;SDS011;137;48.578;9.180;2023-12-22T07:37:39;5.90;;;1.60;;
305;SDS011;137;48.578;9.180;2023-12-22T07:40:06;5.43;;;1.80;;
305;SDS011;137;48.578;9.180;2023-12-22T07:42:34;3.63;;;1.30;;
305;SDS011;137;48.578;9.180;2023-12-22T07:45:01;9.87;;;2.07;;
305;SDS011;137;48.578;9.180;2023-12-22T07:47:30;3.63;;;2.70;;
305;SDS011;137;48.578;9.180;2023-12-22T07:49:57;7.40;;;1.73;;
305;SDS011;137;48.578;9.180;2023-12-22T07:52:26;4.10;;;1.83;;
305;SDS011;137;48.578;9.180;2023-12-22T07:54:53;12.47;;;2.47;;
305;SDS011;137;48.578;9.180;2023-12-22T07:57:20;11.27;;;1.77;;
305;SDS011;137;48.578;9.180;2023-12-22T07:59:46;4.07;;;1.30;;
305;SDS011;137;48.578;9.180;2023-12-22T08:02:13;3.87;;;1.90;;
305;SDS011;137;48.578;9.180;2023-12-22T08:04:41;3.50;;;1.27;;
305;SDS011;137;48.578;9.180;2023-12-22T08:07:08;4.47;;;2.00;;
305;SDS011;137;48.578;9.180;2023-12-22T08:09:35;5.23;;;1.70;;
305;SDS011;137;48.578;9.180;2023-12-22T08:12:01;7.00;;;2.60;;
305;SDS011;137;48.578;9.180;2023-12-22T08:14:29;9.13;;;1.60;;
305;SDS011;137;48.578;9.180;2023-12-22T08:16:55;5.37;;;1.60;;
305;SDS011;137;48.578;9.180;2023-12-22T08:19:22;3.53;;;1.63;;
305;SDS011;137;48.578;9.180;2023-12-22T08:21:51;8.97;;;4.00;;
305;SDS011;137;48.578;9.180;2023-12-22T08:24:18;9.70;;;2.37;;
305;SDS011;137;48.578;9.180;2023-12-22T08:26:45;5.90;;;1.67;;
305;SDS011;137;48.578;9.180;2023-12-22T08:29:12;4.43;;;1.73;;
305;SDS011;137;48.578;9.180;2023-12-22T08:31:38;3.97;;;2.20;;
305;SDS011;137;48.578;9.180;2023-12-22T08:34:05;6.00;;;1.90;;
305;SDS011;137;48.578;9.180;2023-12-22T08:36:32;14.60;;;3.00;;
305;SDS011;137;48.578;9.180;2023-12-22T08:41:40;7.40;;;2.20;;
305;SDS011;137;48.578;9.180;2023-12-22T08:44:07;4.67;;;2.50;;
305;SDS011;137;48.578;9.180;2023-12-22T08:46:33;6.07;;;1.77;;
305;SDS011;137;48.578;9.180;2023-12-22T08:49:01;5.50;;;1.60;;
305;SDS011;137;48.578;9.180;2023-12-22T08:51:27;6.27;;;1.77;;
305;SDS011;137;48.578;9.180;2023-12-22T08:53:54;7.10;;;2.03;;
305;SDS011;137;48.578;9.180;2023-12-22T08:56:21;5.33;;;2.27;;
305;SDS011;137;48.578;9.180;2023-12-22T08:58:50;10.27;;;2.00;;
305;SDS011;137;48.578;9.180;2023-12-22T09:01:19;7.77;;;1.53;;
305;SDS011;137;48.578;9.180;2023-12-22T09:03:46;4.30;;;1.60;;
305;SDS011;137;48.578;9.180;2023-12-22T09:06:13;2.17;;;1.40;;
305;SDS011;137;48.578;9.180;2023-12-22T09:08:40;3.43;;;1.70;;
305;SDS011;137;48.578;9.180;2023-12-22T09:11:07;2.03;;;1.10;;
305;SDS011;137;48.578;9.180;2023-12-22T09:13:34;6.10;;;2.13;;
305;SDS011;137;48.578;9.180;2023-12-22T09:16:03;5.90;;;2.13;;
305;SDS011;137;48.578;9.180;2023-12-22T09:18:30;4.27;;;1.57;;
305;SDS011;137;48.578;9.180;2023-12-22T09:20:57;5.17;;;1.50;;
305;SDS011;137;48.578;9.180;2023-12-22T09:23:24;3.37;;;1.80;;
305;SDS011;137;48.578;9.180;2023-12-22T09:25:51;5.43;;;2.53;;
305;SDS011;137;48.578;9.180;2023-12-22T09:28:17;4.97;;;1.60;;
305;SDS011;137;48.578;9.180;2023-12-22T09:30:44;5.20;;;1.97;;
305;SDS011;137;48.578;9.180;2023-12-22T09:33:12;7.10;;;2.33;;
305;SDS011;137;48.578;9.180;2023-12-22T09:35:40;3.67;;;1.87;;
305;SDS011;137;48.578;9.180;2023-12-22T09:38:07;2.57;;;1.60;;
305;SDS011;137;48.578;9.180;2023-12-22T09:40:35;6.70;;;2.10;;
305;SDS011;137;48.578;9.180;2023-12-22T09:43:02;4.40;;;1.90;;
305;SDS011;137;48.578;9.180;2023-12-22T09:45:30;4.40;;;2.37;;
305;SDS011;137;48.578;9.180;2023-12-22T09:47:58;5.37;;;1.80;;
305;SDS011;137;48.578;9.180;2023-12-22T09:50:27;2.27;;;1.53;;
305;SDS011;137;48.578;9.180;2023-12-22T09:52:54;2.60;;;1.30;;
305;SDS011;137;48.578;9.180;2023-12-22T09:55:21;8.73;;;2.17;;
305;SDS011;137;48.578;9.180;2023-12-22T09:57:49;2.90;;;1.63;;
305;SDS011;137;48.578;9.180;2023-12-22T10:00:16;4.43;;;1.80;;
305;SDS011;137;48.578;9.180;2023-12-22T10:02:44;4.10;;;1.50;;
305;SDS011;137;48.578;9.180;2023-12-22T10:05:11;5.80;;;2.70;;
305;SDS011;137;48.578;9.180;2023-12-22T10:07:40;4.03;;;1.93;;
305;SDS011;137;48.578;9.180;2023-12-22T10:10:10;11.03;;;2.70;;
305;SDS011;137;48.578;9.180;2023-12-22T10:12:38;6.40;;;2.20;;
305;SDS011;137;48.578;9.180;2023-12-22T10:15:05;5.43;;;2.30;;
305;SDS011;137;48.578;9.180;2023-12-22T10:17:35;3.87;;;1.70;;
305;SDS011;137;48.578;9.180;2023-12-22T10:20:02;7.70;;;2.50;;
305;SDS011;137;48.578;9.180;2023-12-22T10:22:29;4.90;;;2.20;;
305;SDS011;137;48.578;9.180;2023-12-22T10:24:57;5.83;;;2.03;;
305;SDS011;137;48.578;9.180;2023-12-22T10:27:24;4.13;;;1.57;;
305;SDS011;137;48.578;9.180;2023-12-22T10:29:53;7.20;;;1.90;;
305;SDS011;137;48.578;9.180;2023-12-22T10:32:21;7.20;;;1.83;;
305;SDS011;137;48.578;9.180;2023-12-22T10:34:48;3.43;;;1.77;;
305;SDS011;137;48.578;9.180;2023-12-22T10:37:17;3.87;;;2.00;;
305;SDS011;137;48.578;9.180;2023-12-22T10:39:44;6.43;;;2.57;;
305;SDS011;137;48.578;9.180;2023-12-22T10:42:15;6.80;;;2.00;;
305;SDS011;137;48.578;9.180;2023-12-22T10:44:42;10.40;;;3.27;;
305;SDS011;137;48.578;9.180;2023-12-22T10:47:09;6.57;;;2.37;;
305;SDS011;137;48.578;9.180;2023-12-22T10:49:36;10.33;;;3.20;;
305;SDS011;137;48.578;9.180;2023-12-22T10:52:03;4.43;;;1.67;;
305;SDS011;137;48.578;9.180;2023-12-22T10:54:30;8.83;;;2.53;;
305;SDS011;137;48.578;9.180;2023-12-22T10:56:57;6.27;;;1.57;;
305;SDS011;137;48.578;9.180;2023-12-22T10:59:27;10.13;;;2.00;;
305;SDS011;137;48.578;9.180;2023-12-22T11:01:56;2.47;;;1.97;;
305;SDS011;137;48.578;9.180;2023-12-22T11:04:25;7.83;;;2.70;;
305;SDS011;137;48.578;9.180;2023-12-22T11:06:56;6.23;;;2.30;;
305;SDS011;137;48.578;9.180;2023-12-22T11:09:24;5.67;;;2.90;;
305;SDS011;137;48.578;9.180;2023-12-22T11:11:57;3.47;;;1.33;;
305;SDS011;137;48.578;9.180;2023-12-22T11:14:27;3.60;;;1.33;;
305;SDS011;137;48.578;9.180;2023-12-22T11:16:57;2.57;;;1.40;;
305;SDS011;137;48.578;9.180;2023-12-22T11:19:26;6.20;;;2.73;;
305;SDS011;137;48.578;9.180;2023-12-22T11:21:54;4.83;;;1.63;;
305;SDS011;137;48.578;9.180;2023-12-22T11:24:24;2.43;;;1.47;;
305;SDS011;137;48.578;9.180;2023-12-22T11:26:54;2.03;;;1.27;;
305;SDS011;137;48.578;9.180;2023-12-22T11:29:23;5.87;;;1.70;;
305;SDS011;137;48.578;9.180;2023-12-22T11:31:53;4.60;;;1.90;;
305;SDS011;137;48.578;9.180;2023-12-22T11:34:21;6.97;;;2.00;;
305;SDS011;137;48.578;9.180;2023-12-22T11:36:49;4.93;;;1.87;;
305;SDS011;137;48.578;9.180;2023-12-22T11:39:18;2.13;;;1.40;;
305;SDS011;137;48.578;9.180;2023-12-22T11:41:45;7.10;;;2.17;;
305;SDS011;137;48.578;9.180;2023-12-22T11:44:16;3.27;;;1.60;;
305;SDS011;137;48.578;9.180;2023-12-22T11:46:43;3.37;;;1.50;;
305;SDS011;137;48.578;9.180;2023-12-22T11:49:13;4.80;;;1.53;;
305;SDS011;137;48.578;9.180;2023-12-22T11:51:40;2.30;;;1.43;;
305;SDS011;137;48.578;9.180;2023-12-22T11:57:09;7.20;;;1.80;;
305;SDS011;137;48.578;9.180;2023-12-22T11:59:56;5.37;;;1.67;;
305;SDS011;137;48.578;9.180;2023-12-22T12:02:24;7.87;;;2.23;;
305;SDS011;137;48.578;9.180;2023-12-22T12:04:53;3.90;;;1.50;;
305;SDS011;137;48.578;9.180;2023-12-22T12:07:36;2.93;;;1.70;;
305;SDS011;137;48.578;9.180;2023-12-22T12:10:05;5.43;;;1.83;;
305;SDS011;137;48.578;9.180;2023-12-22T12:12:32;3.20;;;1.50;;
305;SDS011;137;48.578;9.180;2023-12-22T12:15:02;2.03;;;1.20;;
305;SDS011;137;48.578;9.180;2023-12-22T12:17:33;2.80;;;1.10;;
305;SDS011;137;48.578;9.180;2023-12-22T12:20:06;3.10;;;1.07;;
305;SDS011;137;48.578;9.180;2023-12-22T12:22:35;8.10;;;1.50;;
305;SDS011;137;48.578;9.180;2023-12-22T12:25:03;2.70;;;1.17;;
305;SDS011;137;48.578;9.180;2023-12-22T12:27:33;3.60;;;1.10;;
305;SDS011;137;48.578;9.180;2023-12-22T12:30:04;1.23;;;1.00;;
305;SDS011;137;48.578;9.180;2023-12-22T12:32:34;2.30;;;1.10;;
305;SDS011;137;48.578;9.180;2023-12-22T12:35:02;1.30;;;0.80;;
305;SDS011;137;48.578;9.180;2023-12-22T12:37:31;4.63;;;1.50;;
305;SDS011;137;48.578;9.180;2023-12-22T12:39:58;2.17;;;1.00;;
305;SDS011;137;48.578;9.180;2023-12-22T12:42:29;1.30;;;1.00;;
305;SDS011;137;48.578;9.180;2023-12-22T12:44:56;1.93;;;1.07;;
305;SDS011;137;48.578;9.180;2023-12-22T12:47:23;3.83;;;1.03;;
305;SDS011;137;48.578;9.180;2023-12-22T12:49:56;1.60;;;0.90;;
305;SDS011;137;48.578;9.180;2023-12-22T12:52:26;1.40;;;0.87;;
305;SDS011;137;48.578;9.180;2023-12-22T12:54:55;2.90;;;1.00;;
305;SDS011;137;48.578;9.180;2023-12-22T12:57:23;1.80;;;1.00;;
305;SDS011;137;48.578;9.180;2023-12-22T12:59:50;1.10;;;0.70;;
305;SDS011;137;48.578;9.180;2023-12-22T13:02:17;1.60;;;0.90;;
305;SDS011;137;48.578;9.180;2023-12-22T13:04:45;2.20;;;0.70;;
305;SDS011;137;48.578;9.180;2023-12-22T13:07:12;1.40;;;0.70;;
305;SDS011;137;48.578;9.180;2023-12-22T13:09:39;1.30;;;0.60;;
305;SDS011;137;48.578;9.180;2023-12-22T13:12:09;1.30;;;0.70;;
305;SDS011;137;48.578;9.180;2023-12-22T13:14:39;1.03;;;0.60;;
305;SDS011;137;48.578;9.180;2023-12-22T13:17:06;2.07;;;0.70;;
305;SDS011;137;48.578;9.180;2023-12-22T13:19:35;1.20;;;0.70;;
305;SDS011;137;48.578;9.180;2023-12-22T13:22:01;0.90;;;0.50;;
305;SDS011;137;48.578;9.180;2023-12-22T13:24:28;1.27;;;0.80;;
305;SDS011;137;48.578;9.180;2023-12-22T13:26:58;0.90;;;0.60;;
305;SDS011;137;48.578;9.180;2023-12-22T13:29:28;1.00;;;0.60;;
305;SDS011;137;48.578;9.180;2023-12-22T13:31:55;1.00;;;0.60;;
305;SDS011;137;48.578;9.180;2023-12-22T13:34:23;0.90;;;0.63;;
305;SDS011;137;48.578;9.180;2023-12-22T13:36:50;2.73;;;0.80;;
305;SDS011;137;48.578;9.180;2023-12-22T13:39:17;1.37;;;0.60;;
305;SDS011;137;48.578;9.180;2023-12-22T13:41:44;1.00;;;0.60;;
305;SDS011;137;48.578;9.180;2023-12-22T13:44:11;2.30;;;0.70;;
305;SDS011;137;48.578;9.180;2023-12-22T13:46:40;1.27;;;0.70;;
305;SDS011;137;48.578;9.180;2023-12-22T13:49:08;1.73;;;0.60;;
305;SDS011;137;48.578;9.180;2023-12-22T13:51:39;1.63;;;1.03;;
305;SDS011;137;48.578;9.180;2023-12-22T13:54:06;0.90;;;0.60;;
305;SDS011;137;48.578;9.180;2023-12-22T13:56:33;1.40;;;0.53;;
305;SDS011;137;48.578;9.180;2023-12-22T13:59:01;1.07;;;0.70;;
305;SDS011;137;48.578;9.180;2023-12-22T14:01:29;1.10;;;0.70;;
305;SDS011;137;48.578;9.180;2023-12-22T14:03:57;1.00;;;0.70;;
305;SDS011;137;48.578;9.180;2023-12-22T14:06:24;1.47;;;0.60;;
305;SDS011;137;48.578;9.180;2023-12-22T14:08:51;1.00;;;0.60;;
305;SDS011;137;48.578;9.180;2023-12-22T14:11:18;0.97;;;0.60;;
305;SDS011;137;48.578;9.180;2023-12-22T14:13:45;1.00;;;0.63;;
305;SDS011;137;48.578;9.180;2023-12-22T14:16:12;0.90;;;0.60;;
305;SDS011;137;48.578;9.180;2023-12-22T14:18:40;1.00;;;0.50;;
305;SDS011;137;48.578;9.180;2023-12-22T14:21:08;1.00;;;0.60;;
305;SDS011;137;48.578;9.180;2023-12-22T14:23:35;0.90;;;0.50;;
305;SDS011;137;48.578;9.180;2023-12-22T14:26:01;1.00;;;0.60;;
305;SDS011;137;48.578;9.180;2023-12-22T14:28:28;1.03;;;0.60;;
305;SDS011;137;48.578;9.180;2023-12-22T14:30:55;1.30;;;0.70;;
305;SDS011;137;48.578;9.180;2023-12-22T14:33:22;1.40;;;0.60;;
305;SDS011;137;48.578;9.180;2023-12-22T14:35:48;2.23;;;0.90;;
305;SDS011;137;48.578;9.180;2023-12-22T14:38:16;2.80;;;0.80;;
305;SDS011;137;48.578;9.180;2023-12-22T14:40:43;27.33;;;3.93;;
305;SDS011;137;48.578;9.180;2023-12-22T14:43:10;1.97;;;0.80;;
305;SDS011;137;48.578;9.180;2023-12-22T14:45:37;1.10;;;0.60;;
305;SDS011;137;48.578;9.180;2023-12-22T14:48:04;1.20;;;0.60;;
305;SDS011;137;48.578;9.180;2023-12-22T14:50:31;1.53;;;0.60;;
305;SDS011;137;48.578;9.180;2023-12-22T14:52:58;1.20;;;0.60;;
305;SDS011;137;48.578;9.180;2023-12-22T14:55:26;1.15;;;0.60;;
305;SDS011;137;48.578;9.180;2023-12-22T14:57:53;0.90;;;0.50;;
305;SDS011;137;48.578;9.180;2023-12-22T15:00:20;1.00;;;0.57;;
305;SDS011;137;48.578;9.180;2023-12-22T15:02:47;0.90;;;0.50;;
305;SDS011;137;48.578;9.180;2023-12-22T15:05:14;1.00;;;0.60;;
305;SDS011;137;48.578;9.180;2023-12-22T15:07:40;0.97;;;0.50;;
305;SDS011;137;48.578;9.180;2023-12-22T15:10:07;1.00;;;0.60;;
305;SDS011;137;48.578;9.180;2023-12-22T15:12:36;0.90;;;0.50;;
305;SDS011;137;48.578;9.180;2023-12-22T15:15:05;0.90;;;0.50;;
305;SDS011;137;48.578;9.180;2023-12-22T15:17:32;1.17;;;0.50;;
305;SDS011;137;48.578;9.180;2023-12-22T15:19:59;1.00;;;0.50;;
305;SDS011;137;48.578;9.180;2023-12-22T15:22:28;1.10;;;0.50;;
305;SDS011;137;48.578;9.180;2023-12-22T15:24:55;1.10;;;0.50;;
305;SDS011;137;48.578;9.180;2023-12-22T15:27:22;0.90;;;0.50;;
305;SDS011;137;48.578;9.180;2023-12-22T15:29:50;0.90;;;0.50;;
305;SDS011;137;48.578;9.180;2023-12-22T15:32:17;1.00;;;0.80;;
305;SDS011;137;48.578;9.180;2023-12-22T15:34:44;1.10;;;0.60;;
305;SDS011;137;48.578;9.180;2023-12-22T15:37:12;0.90;;;0.60;;
305;SDS011;137;48.578;9.180;2023-12-22T15:39:39;0.90;;;0.50;;
305;SDS011;137;48.578;9.180;2023-12-22T15:42:06;0.90;;;0.50;;
305;SDS011;137;48.578;9.180;2023-12-22T15:44:32;0.97;;;0.50;;
305;SDS011;137;48.578;9.180;2023-12-22T15:47:05;1.20;;;0.50;;
305;SDS011;137;48.578;9.180;2023-12-22T15:49:32;0.90;;;0.50;;
305;SDS011;137;48.578;9.180;2023-12-22T15:51:59;0.90;;;0.50;;
305;SDS011;137;48.578;9.180;2023-12-22T15:54:25;0.90;;;0.50;;